Time;durP1;ratioP1;P1;durP2;ratioP2;P2;SDS_P1;SDS_P2;PMS_P1;PMS_P2;Temp;Humidity;BMP_temperature;BMP_pressure;BME280_temperature;BME280_humidity;BME280_pressure;Samples;Min_cycle;Max_cycle;Signal;HPM_P1;HPM_P2
2020/12/16 00:02:03;;;;;;;20.55;12.98;;;10.30;96.20;;;;;;5015028;28;20026;-69
2020/12/16 00:04:28;;;;;;;23.63;13.88;;;10.30;96.20;;;;;;5026243;28;20496;-69
2020/12/16 00:06:54;;;;;;;23.45;13.70;;;10.30;96.20;;;;;;5040021;28;20025;-70
2020/12/16 00:09:19;;;;;;;19.58;12.77;;;10.30;96.20;;;;;;5048926;28;20037;-69
2020/12/16 00:11:45;;;;;;;22.00;13.00;;;10.30;96.20;;;;;;5051866;28;20029;-69
2020/12/16 00:14:10;;;;;;;21.27;13.00;;;10.40;96.10;;;;;;5035480;28;20144;-69
2020/12/16 00:16:36;;;;;;;18.23;12.48;;;10.40;96.10;;;;;;5027154;28;20416;-69
2020/12/16 00:19:01;;;;;;;19.60;12.80;;;10.40;96.10;;;;;;5024843;28;20037;-68
2020/12/16 00:21:27;;;;;;;20.60;12.93;;;10.40;96.10;;;;;;5022064;28;20036;-68
2020/12/16 00:23:52;;;;;;;22.55;12.68;;;10.40;96.10;;;;;;5003713;28;20037;-68
2020/12/16 00:26:18;;;;;;;17.05;12.73;;;10.40;96.10;;;;;;5026414;28;20155;-68
2020/12/16 00:28:44;;;;;;;18.95;12.75;;;10.40;96.10;;;;;;5036511;28;20037;-68
2020/12/16 00:31:12;;;;;;;18.20;12.40;;;10.40;96.10;;;;;;5029014;28;20493;-68
2020/12/16 00:33:37;;;;;;;21.55;13.50;;;10.40;96.10;;;;;;5018839;28;20045;-68
2020/12/16 00:36:03;;;;;;;23.58;12.77;;;10.50;96.10;;;;;;5031366;28;20045;-68
2020/12/16 00:38:28;;;;;;;19.52;12.90;;;10.40;96.10;;;;;;5029598;28;20430;-68
2020/12/16 00:40:54;;;;;;;19.63;12.13;;;10.40;96.10;;;;;;5029259;28;20074;-68
2020/12/16 00:43:19;;;;;;;20.00;11.85;;;10.50;96.20;;;;;;5033768;28;20021;-68
2020/12/16 00:45:45;;;;;;;20.13;12.38;;;10.50;96.20;;;;;;5034711;28;20033;-68
2020/12/16 00:48:10;;;;;;;18.13;11.75;;;10.50;96.20;;;;;;5031425;28;20519;-68
2020/12/16 00:50:36;;;;;;;18.50;11.85;;;10.50;96.20;;;;;;5042308;28;20034;-70
2020/12/16 00:53:02;;;;;;;18.17;11.80;;;10.50;96.20;;;;;;5034066;28;20096;-70
2020/12/16 00:55:27;;;;;;;21.40;13.27;;;10.50;96.20;;;;;;5032995;28;20037;-69
2020/12/16 00:57:55;;;;;;;19.67;12.18;;;10.50;96.20;;;;;;5037443;28;20433;-69
2020/12/16 01:00:20;;;;;;;21.58;13.40;;;10.50;96.10;;;;;;5043736;28;20478;-69
2020/12/16 01:02:47;;;;;;;17.55;11.73;;;10.60;96.10;;;;;;5015442;28;20072;-68
2020/12/16 01:05:14;;;;;;;19.00;11.57;;;10.60;96.10;;;;;;5045945;28;20041;-68
2020/12/16 01:07:40;;;;;;;20.80;11.98;;;10.60;96.20;;;;;;5023952;28;20065;-69
2020/12/16 01:10:07;;;;;;;17.17;11.40;;;10.60;96.20;;;;;;5049920;28;20028;-69
2020/12/16 01:12:37;;;;;;;17.90;11.43;;;10.60;96.20;;;;;;5015970;28;20057;-69
2020/12/16 01:15:09;;;;;;;18.52;11.48;;;10.60;96.20;;;;;;5044720;28;20032;-69
2020/12/16 01:17:38;;;;;;;21.38;12.73;;;10.60;96.20;;;;;;5026322;28;20524;-69
2020/12/16 01:20:04;;;;;;;21.00;13.15;;;10.60;96.20;;;;;;5033694;28;20516;-69
2020/12/16 01:22:29;;;;;;;21.10;11.98;;;10.70;96.20;;;;;;5031610;28;20060;-69
2020/12/16 01:24:55;;;;;;;18.08;12.68;;;10.70;96.20;;;;;;5045676;28;20116;-69
2020/12/16 01:27:20;;;;;;;19.00;11.57;;;10.70;96.20;;;;;;5030523;28;20029;-70
2020/12/16 01:29:46;;;;;;;17.05;11.68;;;10.70;96.20;;;;;;5045425;28;20096;-69
2020/12/16 01:32:14;;;;;;;18.60;11.98;;;10.70;96.20;;;;;;5034471;28;20060;-69
2020/12/16 01:34:40;;;;;;;20.38;12.85;;;10.70;96.20;;;;;;5033625;28;20033;-69
2020/12/16 01:37:07;;;;;;;22.70;12.52;;;10.70;96.20;;;;;;5015062;28;20068;-70
2020/12/16 01:39:32;;;;;;;20.08;12.15;;;10.80;96.20;;;;;;5019689;28;20026;-68
2020/12/16 01:41:57;;;;;;;19.52;12.15;;;10.70;96.20;;;;;;5028439;28;20025;-69
2020/12/16 01:44:28;;;;;;;19.65;13.10;;;10.80;96.20;;;;;;5047380;28;20397;-69
2020/12/16 01:46:56;;;;;;;17.92;11.77;;;10.80;96.20;;;;;;5040047;28;20396;-69
2020/12/16 01:49:22;;;;;;;19.70;12.35;;;10.80;96.30;;;;;;5030326;28;20025;-69
2020/12/16 01:51:52;;;;;;;18.75;11.93;;;10.80;96.20;;;;;;5034262;28;20083;-69
2020/12/16 01:54:20;;;;;;;18.23;12.35;;;10.80;96.30;;;;;;5031772;28;20073;-69
2020/12/16 01:56:50;;;;;;;20.83;11.90;;;10.80;96.30;;;;;;5021526;28;20044;-69
2020/12/16 01:59:16;;;;;;;18.13;12.15;;;10.80;96.30;;;;;;5033651;28;20061;-69
2020/12/16 02:01:43;;;;;;;19.55;12.05;;;10.80;96.30;;;;;;5015200;28;20036;-69
2020/12/16 02:04:13;;;;;;;18.48;12.68;;;10.80;96.30;;;;;;5032369;28;20425;-69
2020/12/16 02:06:41;;;;;;;21.23;12.57;;;10.90;96.30;;;;;;5021241;28;20563;-69
2020/12/16 02:09:09;;;;;;;17.65;11.70;;;10.90;96.30;;;;;;5038172;28;20431;-69
2020/12/16 02:11:37;;;;;;;20.00;12.25;;;10.90;96.30;;;;;;5034693;28;20034;-68
2020/12/16 02:14:05;;;;;;;19.70;12.60;;;10.90;96.30;;;;;;5033354;28;20064;-68
2020/12/16 02:16:31;;;;;;;19.30;12.68;;;10.90;96.30;;;;;;5033746;28;20443;-69
2020/12/16 02:18:56;;;;;;;19.00;12.60;;;10.90;96.30;;;;;;5032344;28;20048;-69
2020/12/16 02:21:22;;;;;;;19.65;12.75;;;10.90;96.30;;;;;;5020436;28;20504;-69
2020/12/16 02:23:50;;;;;;;18.30;12.50;;;10.90;96.30;;;;;;5014580;28;20022;-69
2020/12/16 02:26:16;;;;;;;20.08;12.40;;;11.00;96.30;;;;;;5042364;28;20397;-72
2020/12/16 02:28:42;;;;;;;19.48;12.60;;;11.00;96.30;;;;;;5023274;28;20026;-69
2020/12/16 02:31:09;;;;;;;18.70;11.85;;;11.00;96.30;;;;;;5046558;28;20159;-69
2020/12/16 02:33:34;;;;;;;19.67;13.20;;;11.00;96.30;;;;;;5016769;28;20080;-69
2020/12/16 02:36:00;;;;;;;20.63;13.68;;;11.00;96.30;;;;;;5028652;28;20029;-68
2020/12/16 02:38:25;;;;;;;20.20;12.32;;;11.00;96.30;;;;;;5033924;28;20022;-69
2020/12/16 02:40:51;;;;;;;20.13;12.15;;;11.00;96.30;;;;;;5037143;28;20536;-68
2020/12/16 02:43:16;;;;;;;21.38;13.35;;;11.10;96.30;;;;;;5020897;28;20098;-69
2020/12/16 02:45:42;;;;;;;20.48;12.05;;;11.10;96.30;;;;;;5037696;28;20036;-69
2020/12/16 02:48:07;;;;;;;18.75;12.40;;;11.10;96.30;;;;;;5040155;28;20041;-68
2020/12/16 02:50:33;;;;;;;18.23;11.68;;;11.10;96.30;;;;;;5039010;28;20370;-69
2020/12/16 02:52:58;;;;;;;20.40;12.88;;;11.10;96.40;;;;;;5027930;28;20064;-68
2020/12/16 02:55:24;;;;;;;19.35;12.57;;;11.10;96.60;;;;;;5036120;28;20021;-69
2020/12/16 02:57:49;;;;;;;19.48;13.15;;;11.20;96.40;;;;;;5041510;28;20033;-68
2020/12/16 03:00:15;;;;;;;22.20;13.43;;;11.10;96.40;;;;;;5035615;28;20091;-69
2020/12/16 03:02:40;;;;;;;20.42;12.07;;;11.20;96.40;;;;;;5013307;28;20030;-69
2020/12/16 03:05:05;;;;;;;20.05;12.52;;;11.10;96.60;;;;;;5023442;28;20017;-69
2020/12/16 03:07:31;;;;;;;19.02;12.00;;;11.10;96.50;;;;;;5037285;28;20042;-69
2020/12/16 03:09:56;;;;;;;20.83;12.48;;;11.10;96.50;;;;;;5020305;28;20052;-69
2020/12/16 03:12:22;;;;;;;20.23;13.15;;;11.10;96.50;;;;;;5045173;28;20481;-70
2020/12/16 03:14:47;;;;;;;21.10;13.55;;;11.20;96.50;;;;;;5031076;28;20034;-70
2020/12/16 03:17:13;;;;;;;22.92;13.57;;;11.10;96.50;;;;;;5041343;28;20116;-70
2020/12/16 03:19:38;;;;;;;22.15;12.93;;;11.20;96.60;;;;;;5029192;28;20019;-69
2020/12/16 03:22:04;;;;;;;20.63;12.13;;;11.20;96.60;;;;;;5049425;28;20375;-70
2020/12/16 03:24:29;;;;;;;19.60;12.73;;;11.20;96.60;;;;;;5047234;28;20057;-70
2020/12/16 03:26:55;;;;;;;23.67;14.50;;;11.20;96.60;;;;;;5022325;28;20112;-69
2020/12/16 03:29:21;;;;;;;18.83;12.32;;;11.20;96.60;;;;;;5013033;28;20029;-70
2020/12/16 03:31:46;;;;;;;21.70;13.30;;;11.20;96.70;;;;;;5023180;28;20033;-70
2020/12/16 03:34:12;;;;;;;21.73;13.15;;;11.20;96.70;;;;;;5030680;28;20601;-70
2020/12/16 03:36:37;;;;;;;22.00;14.10;;;11.20;96.80;;;;;;5032552;28;20113;-70
2020/12/16 03:39:04;;;;;;;23.00;13.55;;;11.20;96.80;;;;;;5030268;28;20029;-70
2020/12/16 03:41:30;;;;;;;26.17;13.85;;;11.20;96.80;;;;;;5004112;28;20029;-70
2020/12/16 03:43:55;;;;;;;22.45;13.55;;;11.20;96.80;;;;;;5034851;28;20033;-70
2020/12/16 03:46:21;;;;;;;24.00;13.75;;;11.20;96.80;;;;;;5028146;28;20056;-69
2020/12/16 03:48:46;;;;;;;21.20;13.70;;;11.20;96.90;;;;;;5021817;28;20107;-69
2020/12/16 03:51:14;;;;;;;23.83;13.45;;;11.20;96.90;;;;;;5031830;28;20037;-70
2020/12/16 03:53:40;;;;;;;21.15;13.40;;;11.20;96.90;;;;;;5013318;28;20075;-70
2020/12/16 03:56:11;;;;;;;21.38;14.00;;;11.30;96.90;;;;;;5023575;28;20355;-70
2020/12/16 03:58:41;;;;;;;26.00;13.60;;;11.30;97.00;;;;;;5030946;28;20465;-69
2020/12/16 04:01:07;;;;;;;23.67;13.68;;;11.30;97.00;;;;;;5024194;28;20026;-69
2020/12/16 04:03:33;;;;;;;21.90;13.32;;;11.30;97.00;;;;;;5025736;28;20033;-70
2020/12/16 04:05:59;;;;;;;21.23;13.25;;;11.30;97.00;;;;;;5027270;28;20033;-70
2020/12/16 04:08:25;;;;;;;23.45;13.15;;;11.30;97.00;;;;;;5031768;28;20129;-70
2020/12/16 04:10:51;;;;;;;24.58;14.23;;;11.20;97.10;;;;;;5032179;28;20120;-69
2020/12/16 04:13:16;;;;;;;25.42;14.32;;;11.20;97.10;;;;;;5031682;28;20021;-70
2020/12/16 04:15:43;;;;;;;23.33;13.68;;;11.30;97.10;;;;;;5021904;28;20033;-70
2020/12/16 04:18:09;;;;;;;28.42;15.15;;;11.30;97.10;;;;;;5029705;28;20034;-70
2020/12/16 04:20:34;;;;;;;24.10;13.85;;;11.30;97.20;;;;;;5036394;28;20025;-70
2020/12/16 04:23:00;;;;;;;23.80;14.75;;;11.30;97.20;;;;;;5051197;28;20383;-70
2020/12/16 04:25:25;;;;;;;25.98;14.32;;;11.30;97.20;;;;;;5032006;28;20016;-70
2020/12/16 04:27:51;;;;;;;24.50;14.60;;;11.30;97.20;;;;;;5017275;28;20402;-70
2020/12/16 04:30:17;;;;;;;25.23;14.43;;;11.30;97.20;;;;;;5027049;28;20013;-70
2020/12/16 04:32:43;;;;;;;28.17;15.13;;;11.30;97.20;;;;;;5031431;28;20029;-70
2020/12/16 04:35:09;;;;;;;25.08;14.18;;;11.30;97.20;;;;;;5030981;28;20083;-70
2020/12/16 04:37:34;;;;;;;27.33;14.77;;;11.30;97.20;;;;;;5032979;28;20025;-70
2020/12/16 04:40:00;;;;;;;25.40;14.77;;;11.30;97.20;;;;;;5049568;28;20072;-70
2020/12/16 04:42:25;;;;;;;24.60;13.95;;;11.30;97.20;;;;;;5030667;28;20379;-70
2020/12/16 04:44:51;;;;;;;25.33;14.23;;;11.30;97.30;;;;;;5023939;28;20017;-69
2020/12/16 04:47:16;;;;;;;25.52;13.95;;;11.30;97.30;;;;;;5012899;28;20375;-69
2020/12/16 04:49:42;;;;;;;30.67;15.02;;;11.30;97.20;;;;;;5012067;28;20037;-68
2020/12/16 04:52:09;;;;;;;24.52;14.57;;;11.40;97.30;;;;;;5015808;28;20486;-70
2020/12/16 04:54:36;;;;;;;25.55;15.32;;;11.40;97.30;;;;;;5020024;28;20045;-69
2020/12/16 04:57:06;;;;;;;23.92;14.23;;;11.30;97.20;;;;;;5031950;28;20036;-69
2020/12/16 04:59:31;;;;;;;24.67;14.70;;;11.30;97.20;;;;;;5030668;28;20045;-69
2020/12/16 05:01:57;;;;;;;25.27;14.57;;;11.40;97.30;;;;;;5029467;28;20055;-69
2020/12/16 05:04:22;;;;;;;23.95;14.73;;;11.30;97.30;;;;;;5030535;28;20036;-68
2020/12/16 05:06:48;;;;;;;27.10;14.82;;;11.30;97.30;;;;;;5027896;28;20164;-69
2020/12/16 05:09:15;;;;;;;26.65;14.40;;;11.30;97.30;;;;;;5038968;28;20041;-69
2020/12/16 05:11:45;;;;;;;26.77;15.20;;;11.30;97.40;;;;;;5030074;28;20034;-68
2020/12/16 05:14:17;;;;;;;24.40;14.00;;;11.30;97.40;;;;;;5011561;28;20061;-68
2020/12/16 05:17:02;;;;;;;26.95;15.00;;;11.30;97.40;;;;;;5024346;28;20088;-68
2020/12/16 05:19:40;;;;;;;27.98;15.75;;;11.40;97.40;;;;;;5011944;28;20104;-68
2020/12/16 05:22:17;;;;;;;28.83;15.25;;;11.30;97.40;;;;;;5028299;28;20481;-68
2020/12/16 05:24:50;;;;;;;25.75;14.25;;;11.30;97.40;;;;;;5028919;28;20037;-68
2020/12/16 05:27:21;;;;;;;28.45;15.38;;;11.40;97.50;;;;;;5031096;28;20044;-68
2020/12/16 05:29:51;;;;;;;26.42;14.68;;;11.40;97.50;;;;;;5024670;28;20125;-68
2020/12/16 05:32:36;;;;;;;28.60;15.90;;;11.40;97.70;;;;;;5024979;28;20080;-68
2020/12/16 05:35:20;;;;;;;;;;;11.40;97.50;;;;;;5019031;28;20034;-68
2020/12/16 05:37:45;;;;;;;26.40;15.52;;;11.40;97.30;;;;;;5038037;28;19967;-68
2020/12/16 05:40:14;;;;;;;26.05;15.40;;;11.30;97.40;;;;;;5041893;28;20435;-69
2020/12/16 05:42:40;;;;;;;31.15;15.88;;;11.40;97.50;;;;;;5034587;28;20079;-69
2020/12/16 05:45:17;;;;;;;26.60;15.07;;;11.40;97.50;;;;;;5029589;28;20041;-69
2020/12/16 05:47:56;;;;;;;24.02;13.95;;;11.40;97.60;;;;;;5034136;28;20489;-69
2020/12/16 05:50:22;;;;;;;26.27;14.90;;;11.40;97.60;;;;;;5029289;28;20030;-68
2020/12/16 05:52:47;;;;;;;27.40;15.93;;;11.40;97.60;;;;;;5034242;28;20455;-69
2020/12/16 05:55:26;;;;;;;29.83;15.55;;;11.40;97.60;;;;;;5011051;28;20398;-69
2020/12/16 05:58:06;;;;;;;31.60;16.48;;;11.40;97.60;;;;;;5033139;28;20128;-69
2020/12/16 06:00:48;;;;;;;25.38;15.30;;;11.40;97.80;;;;;;5029220;28;20041;-69
2020/12/16 06:03:19;;;;;;;25.85;15.60;;;11.40;97.60;;;;;;5034030;28;20055;-69
2020/12/16 06:05:47;;;;;;;29.25;16.65;;;11.40;97.60;;;;;;5018045;28;20029;-69
2020/12/16 06:08:13;;;;;;;27.30;15.65;;;11.40;97.60;;;;;;5024985;28;20061;-69
2020/12/16 06:10:43;;;;;;;27.65;15.68;;;11.40;97.60;;;;;;5030627;28;20131;-69
2020/12/16 06:13:13;;;;;;;31.92;16.02;;;11.50;97.70;;;;;;5034192;28;20053;-69
2020/12/16 06:15:46;;;;;;;27.02;15.85;;;11.40;97.60;;;;;;4999506;28;20128;-70
2020/12/16 06:18:15;;;;;;;27.25;15.73;;;11.50;97.70;;;;;;5034024;28;20129;-69
2020/12/16 06:20:41;;;;;;;27.42;14.98;;;11.50;97.70;;;;;;5016525;28;20052;-69
2020/12/16 06:23:14;;;;;;;27.05;16.63;;;11.50;97.70;;;;;;5052554;28;20472;-69
2020/12/16 06:25:47;;;;;;;27.08;15.63;;;11.50;97.70;;;;;;5042961;28;20494;-69
2020/12/16 06:28:13;;;;;;;30.75;16.08;;;11.50;97.70;;;;;;5019144;28;20046;-69
2020/12/16 06:30:53;;;;;;;26.15;15.50;;;11.50;97.70;;;;;;5030601;28;20029;-69
2020/12/16 06:33:43;;;;;;;26.77;15.95;;;11.50;97.70;;;;;;5026010;28;20026;-69
2020/12/16 06:36:10;;;;;;;25.63;14.57;;;11.50;97.60;;;;;;5018166;28;20025;-69
2020/12/16 06:38:40;;;;;;;29.15;15.70;;;11.50;97.70;;;;;;5033389;28;20045;-69
2020/12/16 06:41:10;;;;;;;28.67;15.48;;;11.50;97.70;;;;;;5031117;28;20029;-69
2020/12/16 06:43:37;;;;;;;26.80;15.90;;;11.60;97.70;;;;;;5033048;28;20042;-69
2020/12/16 06:46:26;;;;;;;24.80;14.68;;;11.60;97.70;;;;;;5031519;28;20029;-68
2020/12/16 06:48:52;;;;;;;30.45;15.48;;;11.60;97.70;;;;;;5041435;28;20041;-69
2020/12/16 06:51:23;;;;;;;27.42;15.75;;;11.60;97.60;;;;;;5024795;28;20381;-69
2020/12/16 06:54:01;;;;;;;27.73;16.55;;;11.60;97.60;;;;;;5047756;28;20042;-69
2020/12/16 06:56:29;;;;;;;28.35;15.95;;;11.60;97.60;;;;;;5008754;28;20033;-70
2020/12/16 06:58:54;;;;;;;28.75;15.15;;;11.60;97.60;;;;;;5030196;28;20033;-70
2020/12/16 07:01:20;;;;;;;25.10;14.00;;;11.60;97.60;;;;;;5037450;28;20055;-70
2020/12/16 07:03:45;;;;;;;27.80;14.88;;;11.60;97.60;;;;;;5038739;28;20035;-70
2020/12/16 07:06:31;;;;;;;27.98;15.45;;;11.60;97.70;;;;;;5038232;28;20034;-69
2020/12/16 07:09:20;;;;;;;28.65;15.40;;;11.60;97.70;;;;;;5011705;28;20100;-69
2020/12/16 07:11:53;;;;;;;28.88;15.90;;;11.60;97.70;;;;;;5022806;28;20389;-69
2020/12/16 07:14:23;;;;;;;30.73;16.40;;;11.60;97.60;;;;;;5032736;28;20022;-70
2020/12/16 07:16:49;;;;;;;33.70;15.70;;;11.60;97.60;;;;;;5031539;28;20315;-69
2020/12/16 07:19:25;;;;;;;29.60;17.27;;;11.60;97.70;;;;;;5025706;28;20060;-69
2020/12/16 07:21:51;;;;;;;25.23;15.02;;;11.60;97.80;;;;;;5022502;28;20382;-71
2020/12/16 07:24:17;;;;;;;27.42;15.57;;;11.60;97.80;;;;;;5032161;28;20025;-70
2020/12/16 07:26:46;;;;;;;27.10;14.75;;;11.60;97.80;;;;;;5004228;28;20025;-70
2020/12/16 07:29:22;;;;;;;31.70;16.05;;;11.60;97.90;;;;;;5031906;28;20046;-69
2020/12/16 07:32:04;;;;;;;30.77;16.05;;;11.60;97.90;;;;;;5038271;28;20084;-69
2020/12/16 07:34:42;;;;;;;27.30;16.13;;;11.60;97.90;;;;;;5032548;28;20028;-70
2020/12/16 07:37:08;;;;;;;26.38;15.23;;;11.60;97.90;;;;;;5022368;28;20497;-70
2020/12/16 07:39:34;;;;;;;27.05;16.00;;;11.60;97.80;;;;;;5012894;28;20027;-71
2020/12/16 07:42:00;;;;;;;29.48;16.08;;;11.60;97.80;;;;;;5030915;28;20494;-71
2020/12/16 07:44:26;;;;;;;29.25;15.23;;;11.60;97.90;;;;;;5038627;28;20029;-71
2020/12/16 07:46:52;;;;;;;27.13;15.63;;;11.60;97.80;;;;;;5028031;28;20050;-71
2020/12/16 07:49:20;;;;;;;26.33;16.15;;;11.60;97.80;;;;;;5031846;28;20112;-71
2020/12/16 07:51:45;;;;;;;28.58;16.40;;;11.60;97.80;;;;;;5031501;28;20037;-71
2020/12/16 07:54:11;;;;;;;27.25;15.52;;;11.60;97.70;;;;;;5030098;28;20044;-71
2020/12/16 07:56:37;;;;;;;41.15;21.55;;;11.60;97.80;;;;;;5028535;28;20087;-71
2020/12/16 07:59:13;;;;;;;38.70;21.33;;;11.60;97.70;;;;;;5025552;28;20057;-71
2020/12/16 08:01:39;;;;;;;34.58;20.90;;;11.60;97.70;;;;;;5022426;28;20033;-75
2020/12/16 08:04:05;;;;;;;35.15;20.67;;;11.60;97.70;;;;;;5031364;28;20036;-75
2020/12/16 08:06:31;;;;;;;34.88;19.58;;;11.60;97.70;;;;;;5031578;28;20096;-75
2020/12/16 08:08:57;;;;;;;35.72;20.23;;;11.60;97.70;;;;;;5031120;28;20084;-75
2020/12/16 08:11:27;;;;;;;36.65;20.85;;;11.70;97.70;;;;;;5032946;28;20017;-76
2020/12/16 08:14:07;;;;;;;38.05;21.98;;;11.70;97.70;;;;;;5037246;28;20021;-75
2020/12/16 08:16:34;;;;;;;39.38;21.98;;;11.60;97.70;;;;;;5035217;28;20034;-77
2020/12/16 08:19:01;;;;;;;42.58;23.05;;;11.70;97.60;;;;;;5029925;28;20062;-76
2020/12/16 08:21:26;;;;;;;34.83;19.77;;;11.70;97.70;;;;;;5033964;28;20052;-75
2020/12/16 08:23:54;;;;;;;33.25;17.85;;;11.70;97.70;;;;;;5034802;28;20035;-75
2020/12/16 08:26:25;;;;;;;32.30;18.38;;;11.70;97.70;;;;;;5030414;28;20118;-76
2020/12/16 08:28:51;;;;;;;34.42;18.52;;;11.70;97.60;;;;;;5033999;28;20041;-76
2020/12/16 08:31:18;;;;;;;33.65;18.00;;;11.70;97.60;;;;;;5050117;28;20021;-75
2020/12/16 08:33:48;;;;;;;35.20;18.17;;;11.80;97.50;;;;;;5026899;28;20033;-76
2020/12/16 08:36:24;;;;;;;34.83;18.85;;;11.70;97.60;;;;;;5032444;28;20073;-76
2020/12/16 08:38:51;;;;;;;30.60;16.75;;;11.80;97.50;;;;;;5015520;28;20057;-76
2020/12/16 08:41:28;;;;;;;31.20;18.10;;;11.80;97.60;;;;;;5033684;28;20025;-75
2020/12/16 08:43:55;;;;;;;30.30;16.35;;;11.80;97.70;;;;;;5050961;28;20033;-75
2020/12/16 08:46:25;;;;;;;30.95;17.83;;;11.80;97.70;;;;;;5034466;28;20081;-75
2020/12/16 08:49:00;;;;;;;31.48;17.88;;;11.80;97.70;;;;;;5015830;28;20065;-75
2020/12/16 08:51:34;;;;;;;30.48;17.75;;;11.90;97.70;;;;;;5030058;28;20033;-75
2020/12/16 08:54:02;;;;;;;33.47;17.13;;;11.90;97.70;;;;;;5024127;28;20085;-75
2020/12/16 08:56:28;;;;;;;34.70;18.35;;;11.80;97.70;;;;;;5039053;28;20034;-75
2020/12/16 08:59:08;;;;;;;30.48;18.17;;;11.90;97.70;;;;;;5013195;28;20021;-75
2020/12/16 09:01:36;;;;;;;33.60;18.65;;;11.90;97.60;;;;;;5013127;28;20057;-76
2020/12/16 09:04:02;;;;;;;34.80;18.08;;;11.90;97.70;;;;;;5015574;28;20037;-75
2020/12/16 09:06:28;;;;;;;41.25;21.83;;;11.90;97.60;;;;;;5032304;28;20049;-72
2020/12/16 09:08:53;;;;;;;39.30;21.50;;;12.00;97.70;;;;;;5013766;28;20606;-72
2020/12/16 09:11:20;;;;;;;41.05;21.85;;;12.00;97.60;;;;;;5027816;28;20016;-73
2020/12/16 09:13:47;;;;;;;31.15;18.05;;;12.00;97.60;;;;;;5020420;28;20553;-73
2020/12/16 09:16:23;;;;;;;38.50;19.08;;;12.00;97.60;;;;;;5016090;28;20025;-72
2020/12/16 09:18:50;;;;;;;28.67;16.33;;;12.10;97.60;;;;;;5038537;28;20038;-73
2020/12/16 09:21:17;;;;;;;37.30;18.30;;;12.10;97.50;;;;;;5037137;28;20035;-73
2020/12/16 09:23:43;;;;;;;33.88;17.88;;;12.20;97.50;;;;;;5035858;28;20041;-73
2020/12/16 09:26:09;;;;;;;38.42;19.55;;;12.20;97.40;;;;;;5034433;28;20057;-74
2020/12/16 09:28:37;;;;;;;32.70;17.50;;;12.20;97.40;;;;;;5035239;28;20072;-73
2020/12/16 09:31:14;;;;;;;32.70;16.88;;;12.20;97.40;;;;;;5035532;28;20060;-73
2020/12/16 09:33:40;;;;;;;29.23;16.17;;;12.20;97.30;;;;;;5036012;28;20073;-73
2020/12/16 09:36:06;;;;;;;34.13;17.73;;;12.20;97.30;;;;;;5035175;28;20480;-73
2020/12/16 09:38:31;;;;;;;31.73;17.15;;;12.30;97.30;;;;;;5037741;28;20025;-73
2020/12/16 09:40:58;;;;;;;29.77;16.02;;;12.30;97.20;;;;;;5033188;28;20033;-73
2020/12/16 09:43:40;;;;;;;30.75;16.95;;;12.40;97.20;;;;;;5034980;28;20116;-75
2020/12/16 09:46:20;;;;;;;32.90;18.25;;;12.30;97.20;;;;;;5035800;28;20059;-75
2020/12/16 09:48:47;;;;;;;30.08;16.30;;;12.40;97.20;;;;;;5030119;28;20061;-75
2020/12/16 09:51:18;;;;;;;27.40;16.95;;;12.40;97.10;;;;;;5021551;28;20065;-75
2020/12/16 09:53:44;;;;;;;29.73;15.63;;;12.40;97.10;;;;;;5026580;28;20057;-82
2020/12/16 09:56:25;;;;;;;30.55;17.00;;;12.40;97.10;;;;;;5034945;28;20597;-78
2020/12/16 09:58:50;;;;;;;28.27;15.73;;;12.40;97.00;;;;;;5023495;28;20026;-75
2020/12/16 10:01:16;;;;;;;32.30;16.67;;;12.50;96.90;;;;;;5035632;28;20036;-74
2020/12/16 10:03:42;;;;;;;31.30;16.63;;;12.40;96.80;;;;;;5032647;28;20033;-77
2020/12/16 10:06:14;;;;;;;28.20;16.27;;;12.40;96.80;;;;;;5023718;28;20052;-76
2020/12/16 10:08:40;;;;;;;28.13;17.17;;;12.40;96.80;;;;;;5003539;28;20453;-74
2020/12/16 10:11:15;;;;;;;27.90;16.13;;;12.40;96.80;;;;;;5026992;28;20044;-74
2020/12/16 10:13:43;;;;;;;26.02;15.55;;;12.40;96.80;;;;;;5023561;28;20037;-78
2020/12/16 10:16:10;;;;;;;28.58;15.82;;;12.50;96.70;;;;;;5033081;28;20057;-76
2020/12/16 10:18:36;;;;;;;26.17;15.98;;;12.50;96.70;;;;;;5024853;28;20048;-73
2020/12/16 10:21:02;;;;;;;30.58;15.85;;;12.50;96.60;;;;;;5034161;28;20029;-77
2020/12/16 10:23:28;;;;;;;27.02;15.88;;;12.50;96.60;;;;;;5042249;28;20072;-80
2020/12/16 10:25:53;;;;;;;29.65;15.77;;;12.50;96.50;;;;;;5030251;28;20020;-77
2020/12/16 10:28:21;;;;;;;23.92;15.00;;;12.50;96.50;;;;;;5025828;28;20037;-79
2020/12/16 10:30:48;;;;;;;28.63;14.52;;;12.60;96.40;;;;;;5034789;28;20029;-76
2020/12/16 10:33:14;;;;;;;26.83;14.48;;;12.50;96.30;;;;;;5035371;28;20109;-79
2020/12/16 10:35:39;;;;;;;25.02;13.57;;;12.50;96.20;;;;;;5028940;28;20109;-75
2020/12/16 10:38:05;;;;;;;23.48;13.93;;;12.50;96.10;;;;;;5019148;28;20030;-77
2020/12/16 10:40:31;;;;;;;22.95;13.40;;;12.60;96.10;;;;;;5037405;28;20057;-74
2020/12/16 10:42:58;;;;;;;23.38;13.50;;;12.60;96.00;;;;;;5034683;28;20097;-76
2020/12/16 10:45:25;;;;;;;22.20;13.18;;;12.60;95.80;;;;;;5025325;28;20068;-79
2020/12/16 10:47:57;;;;;;;22.85;13.23;;;12.70;95.80;;;;;;5019905;28;20797;-79
2020/12/16 10:50:30;;;;;;;24.30;12.65;;;12.70;95.80;;;;;;5015445;28;20034;-79
2020/12/16 10:52:55;;;;;;;23.20;14.35;;;12.70;95.70;;;;;;5028038;28;20114;-78
2020/12/16 10:55:21;;;;;;;22.08;13.32;;;12.70;95.50;;;;;;5017237;28;20510;-79
2020/12/16 10:57:46;;;;;;;22.42;13.10;;;12.70;95.50;;;;;;5024327;28;20017;-72
2020/12/16 11:00:12;;;;;;;26.75;14.07;;;12.60;95.50;;;;;;5030782;28;20243;-79
2020/12/16 11:02:37;;;;;;;26.95;13.95;;;12.60;95.60;;;;;;5028042;28;20075;-80
2020/12/16 11:05:03;;;;;;;28.02;13.48;;;12.60;95.60;;;;;;5048318;28;20486;-79
2020/12/16 11:07:29;;;;;;;22.83;14.65;;;12.60;95.70;;;;;;5027606;28;20041;-78
2020/12/16 11:09:54;;;;;;;28.30;15.13;;;12.60;95.70;;;;;;5015714;28;20030;-80
2020/12/16 11:12:20;;;;;;;26.95;14.15;;;12.60;95.80;;;;;;5030724;28;20018;-78
2020/12/16 11:14:46;;;;;;;27.20;16.02;;;12.60;95.80;;;;;;5021674;28;20137;-77
2020/12/16 11:17:11;;;;;;;26.52;15.60;;;12.60;95.80;;;;;;5016436;28;20351;-79
2020/12/16 11:19:37;;;;;;;25.27;15.05;;;12.60;95.80;;;;;;5020379;28;20026;-79
2020/12/16 11:22:03;;;;;;;26.35;16.30;;;12.60;95.80;;;;;;5013459;28;20033;-77
2020/12/16 11:24:29;;;;;;;28.75;15.77;;;12.60;95.80;;;;;;5031769;28;20052;-80
2020/12/16 11:26:54;;;;;;;29.10;17.10;;;12.60;95.80;;;;;;5024690;28;20108;-80
2020/12/16 11:29:22;;;;;;;26.88;15.98;;;12.60;95.90;;;;;;5030932;28;20116;-79
2020/12/16 11:31:53;;;;;;;27.52;16.27;;;12.60;95.90;;;;;;5031538;28;20053;-79
2020/12/16 11:34:21;;;;;;;31.13;16.33;;;12.70;95.90;;;;;;5030166;28;20114;-76
2020/12/16 11:36:48;;;;;;;26.00;15.95;;;12.60;95.80;;;;;;5013186;28;20037;-79
2020/12/16 11:39:14;;;;;;;25.77;14.75;;;12.60;95.80;;;;;;5013502;28;20018;-77
2020/12/16 11:41:48;;;;;;;24.75;15.13;;;12.60;95.70;;;;;;5030698;28;20060;-77
2020/12/16 11:44:15;;;;;;;23.27;14.40;;;12.60;95.60;;;;;;5029161;28;20036;-74
2020/12/16 11:46:42;;;;;;;22.83;14.25;;;12.60;95.50;;;;;;5031703;28;20037;-75
2020/12/16 11:49:09;;;;;;;26.25;15.10;;;12.60;95.50;;;;;;5031032;28;20041;-77
2020/12/16 11:51:34;;;;;;;22.52;14.05;;;12.50;95.40;;;;;;5024557;28;20030;-76
2020/12/16 11:54:00;;;;;;;24.27;14.77;;;12.50;95.40;;;;;;5028945;28;20056;-77
2020/12/16 11:56:25;;;;;;;27.85;15.10;;;12.50;95.50;;;;;;5018621;28;20084;-78
2020/12/16 11:58:51;;;;;;;25.30;15.07;;;12.50;95.50;;;;;;5027036;28;20653;-76
2020/12/16 12:01:17;;;;;;;23.90;13.38;;;12.50;95.60;;;;;;5030969;28;20040;-76
2020/12/16 12:03:43;;;;;;;23.50;14.38;;;12.50;95.60;;;;;;5039669;28;20086;-76
2020/12/16 12:06:10;;;;;;;26.52;16.55;;;12.40;95.50;;;;;;5028644;28;20029;-75
2020/12/16 12:08:37;;;;;;;25.40;13.73;;;12.40;95.50;;;;;;5034252;28;20041;-75
2020/12/16 12:11:03;;;;;;;25.55;14.40;;;12.40;95.60;;;;;;5015691;28;20026;-75
2020/12/16 12:13:29;;;;;;;22.50;13.18;;;12.50;95.60;;;;;;5022874;28;20087;-75
2020/12/16 12:15:54;;;;;;;23.92;13.77;;;12.40;95.50;;;;;;5031626;28;20413;-76
2020/12/16 12:18:20;;;;;;;25.52;15.48;;;12.40;95.50;;;;;;5029424;28;20022;-76
2020/12/16 12:20:45;;;;;;;27.17;14.77;;;12.40;95.50;;;;;;5014089;28;20025;-75
2020/12/16 12:23:11;;;;;;;27.67;15.32;;;12.40;95.50;;;;;;5034838;28;20079;-76
2020/12/16 12:25:37;;;;;;;26.52;15.25;;;12.40;95.50;;;;;;5039199;28;20025;-75
2020/12/16 12:28:02;;;;;;;29.10;15.70;;;12.40;95.60;;;;;;5043829;28;20492;-75
2020/12/16 12:30:28;;;;;;;25.50;14.63;;;12.40;95.60;;;;;;5031597;28;20033;-77
2020/12/16 12:32:53;;;;;;;24.00;15.15;;;12.30;95.60;;;;;;5040634;28;20519;-74